Time;durP1;ratioP1;P1;durP2;ratioP2;P2;SDS_P1;SDS_P2;PMS_P1;PMS_P2;Temp;Humidity;BMP_temperature;BMP_pressure;BME280_temperature;BME280_humidity;BME280_pressure;Samples;Min_cycle;Max_cycle;Signal;HPM_P1;HPM_P2
2023/06/17 00:01:51;;;;;;;;;6.00;5.50;;;;;15.67;46.78;99903.16;5097157;28;8845;-57
2023/06/17 00:04:19;;;;;;;;;11.50;11.50;;;;;15.65;46.96;99901.59;5097309;28;8821;-59
2023/06/17 00:06:47;;;;;;;;;12.50;10.75;;;;;15.63;47.38;99903.63;5095995;28;8833;-58
2023/06/17 00:09:15;;;;;;;;;12.00;9.00;;;;;15.60;47.25;99899.41;5096157;28;8976;-55
2023/06/17 00:11:42;;;;;;;;;9.00;7.00;;;;;15.58;47.06;99898.72;5096490;28;8853;-57
2023/06/17 00:14:10;;;;;;;;;10.50;10.00;;;;;15.58;46.79;99895.16;5096659;28;8902;-57
2023/06/17 00:16:43;;;;;;;;;7.00;7.00;;;;;15.56;47.22;99892.63;5096895;28;8955;-57
2023/06/17 00:19:15;;;;;;;;;7.00;7.00;;;;;15.54;46.88;99894.63;5096611;28;8889;-58
2023/06/17 00:21:43;;;;;;;;;9.50;9.00;;;;;15.52;47.10;99890.41;5095941;28;8837;-59
2023/06/17 00:24:12;;;;;;;;;10.50;9.00;;;;;15.50;47.42;99889.72;5096696;28;8868;-56
2023/06/17 00:26:40;;;;;;;;;7.50;7.00;;;;;15.47;47.61;99898.09;5096595;28;8840;-59
2023/06/17 00:29:08;;;;;;;;;8.50;7.00;;;;;15.44;47.19;99884.97;5095679;28;8870;-58
2023/06/17 00:31:36;;;;;;;;;9.00;6.25;;;;;15.41;47.30;99885.28;5095943;28;8825;-59
2023/06/17 00:34:04;;;;;;;;;8.00;7.50;;;;;15.37;47.14;99890.13;5096834;28;8867;-59
2023/06/17 00:36:31;;;;;;;;;12.00;10.50;;;;;15.33;47.25;99883.38;5096675;28;8845;-59
2023/06/17 00:38:59;;;;;;;;;9.00;9.00;;;;;15.29;47.39;99887.34;5096897;28;9220;-59
2023/06/17 00:41:27;;;;;;;;;10.00;10.00;;;;;15.22;47.96;99882.72;5096782;28;8855;-59
2023/06/17 00:43:55;;;;;;;;;13.75;10.75;;;;;15.17;47.86;99879.66;5097240;28;8833;-59
2023/06/17 00:46:23;;;;;;;;;9.00;7.00;;;;;15.12;48.13;99888.19;5096076;28;8963;-59
2023/06/17 00:48:51;;;;;;;;;7.00;7.00;;;;;15.08;48.36;99881.41;5096604;28;8825;-58
2023/06/17 00:51:20;;;;;;;;;9.00;9.00;;;;;15.04;48.10;99882.72;5096018;28;8829;-58
2023/06/17 00:53:48;;;;;;;;;10.50;9.25;;;;;15.02;47.85;99881.19;5095413;28;8843;-58
2023/06/17 00:56:17;;;;;;;;;8.50;7.00;;;;;15.01;48.17;99879.50;5095769;28;8833;-58
2023/06/17 00:58:45;;;;;;;;;7.00;6.25;;;;;14.98;48.45;99887.84;5095245;28;8831;-59
2023/06/17 01:01:12;;;;;;;;;8.50;7.00;;;;;14.95;47.84;99890.84;5095779;28;8853;-58
2023/06/17 01:03:40;;;;;;;;;9.25;9.25;;;;;14.92;48.00;99888.44;5095818;28;8857;-57
2023/06/17 01:06:08;;;;;;;;;9.00;9.00;;;;;14.86;48.33;99897.94;5095212;28;8829;-59
2023/06/17 01:08:36;;;;;;;;;11.50;9.00;;;;;14.77;48.44;99893.47;5096679;28;8960;-59
2023/06/17 01:11:04;;;;;;;;;12.25;10.00;;;;;14.69;48.73;99889.84;5096035;28;8837;-57
2023/06/17 01:13:32;;;;;;;;;10.50;8.50;;;;;14.59;48.60;99883.69;5095675;28;8967;-59
2023/06/17 01:15:59;;;;;;;;;11.00;9.00;;;;;14.50;48.83;99889.94;5095430;28;8849;-57
2023/06/17 01:18:28;;;;;;;;;6.00;4.00;;;;;14.42;48.76;99884.50;5095325;28;9549;-58
2023/06/17 01:20:55;;;;;;;;;9.75;9.00;;;;;14.36;48.69;99885.06;5095375;28;9553;-57
2023/06/17 01:23:23;;;;;;;;;12.25;10.00;;;;;14.31;49.27;99880.16;5095339;28;8837;-58
2023/06/17 01:25:51;;;;;;;;;5.50;3.50;;;;;14.28;48.90;99885.78;5096164;28;8841;-58
2023/06/17 01:28:19;;;;;;;;;9.00;7.00;;;;;14.27;49.56;99877.91;5095395;28;8833;-59
2023/06/17 01:30:48;;;;;;;;;9.00;7.50;;;;;14.26;48.91;99881.59;5096329;28;9579;-58
2023/06/17 01:33:15;;;;;;;;;6.50;6.50;;;;;14.27;49.28;99880.59;5095053;28;8943;-57
2023/06/17 01:35:43;;;;;;;;;7.00;6.25;;;;;14.26;48.84;99876.25;5095450;28;8829;-58
2023/06/17 01:38:11;;;;;;;;;9.00;9.00;;;;;14.25;49.18;99878.06;5095048;28;8902;-58
2023/06/17 01:40:40;;;;;;;;;8.50;8.50;;;;;14.22;49.16;99874.81;5095759;28;8833;-58
2023/06/17 01:43:08;;;;;;;;;3.00;3.00;;;;;14.19;49.36;99872.47;5095796;28;8841;-59
2023/06/17 01:45:36;;;;;;;;;9.25;7.50;;;;;14.15;49.28;99876.38;5096526;28;8914;-58
2023/06/17 01:48:04;;;;;;;;;8.50;7.00;;;;;14.11;49.69;99867.78;5094553;28;8845;-57
2023/06/17 01:50:32;;;;;;;;;10.00;7.50;;;;;14.07;49.73;99877.13;5094341;28;8852;-58
2023/06/17 01:53:00;;;;;;;;;9.00;9.00;;;;;14.02;49.35;99870.47;5095016;28;8844;-58
2023/06/17 01:55:27;;;;;;;;;9.00;9.00;;;;;13.97;49.74;99878.13;5096062;28;8887;-58
2023/06/17 01:57:55;;;;;;;;;6.50;6.50;;;;;13.94;49.48;99870.38;5095168;28;8971;-58
2023/06/17 02:00:23;;;;;;;;;7.00;6.75;;;;;13.89;49.62;99864.63;5094906;28;8845;-59
2023/06/17 02:02:51;;;;;;;;;9.00;7.00;;;;;13.86;49.79;99876.47;5095021;28;8841;-58
2023/06/17 02:05:19;;;;;;;;;9.00;8.50;;;;;13.84;50.17;99869.56;5096195;28;8972;-58
2023/06/17 02:07:47;;;;;;;;;5.00;5.00;;;;;13.79;49.88;99877.16;5095409;28;8817;-58
2023/06/17 02:10:15;;;;;;;;;9.75;9.75;;;;;13.73;49.83;99864.38;5095326;28;8848;-58
2023/06/17 02:12:43;;;;;;;;;8.50;7.00;;;;;13.67;50.30;99862.28;5095075;28;8863;-57
2023/06/17 02:15:10;;;;;;;;;11.00;10.00;;;;;13.62;50.10;99864.53;5095513;28;8829;-56
2023/06/17 02:17:38;;;;;;;;;8.00;7.50;;;;;13.59;50.41;99856.78;5095568;28;8841;-56
2023/06/17 02:20:09;;;;;;;;;10.00;9.00;;;;;13.54;50.67;99856.38;5095366;28;8867;-58
2023/06/17 02:22:37;;;;;;;;;11.25;11.00;;;;;13.49;50.53;99856.78;5094993;28;8848;-57
2023/06/17 02:25:06;;;;;;;;;9.00;8.50;;;;;13.46;50.43;99864.25;5095530;28;8841;-57
2023/06/17 02:27:34;;;;;;;;;6.00;6.00;;;;;13.41;50.88;99861.16;5095342;28;8848;-59
2023/06/17 02:30:02;;;;;;;;;9.00;9.00;;;;;13.37;50.34;99859.78;5095578;28;8833;-58
2023/06/17 02:32:30;;;;;;;;;7.50;7.50;;;;;13.33;50.68;99861.03;5094839;28;9532;-56
2023/06/17 02:34:58;;;;;;;;;11.50;9.00;;;;;13.27;50.95;99873.13;5096848;28;8847;-57
2023/06/17 02:37:25;;;;;;;;;6.75;6.50;;;;;13.24;51.04;99865.41;5098674;28;8866;-58
2023/06/17 02:39:53;;;;;;;;;9.25;7.50;;;;;13.20;51.02;99866.66;5098299;28;8841;-57
2023/06/17 02:42:21;;;;;;;;;8.00;7.50;;;;;13.20;51.27;99865.84;5098972;28;8833;-59
2023/06/17 02:44:49;;;;;;;;;7.00;6.50;;;;;13.19;50.96;99853.41;5098859;28;8837;-57
2023/06/17 02:47:17;;;;;;;;;9.00;9.00;;;;;13.16;50.74;99862.59;5097945;28;8825;-57
2023/06/17 02:49:45;;;;;;;;;10.00;9.00;;;;;13.14;50.85;99856.50;5098677;28;8887;-59
2023/06/17 02:52:12;;;;;;;;;9.25;9.00;;;;;13.11;51.21;99862.16;5098824;28;8853;-56
2023/06/17 02:54:40;;;;;;;;;11.50;9.00;;;;;13.10;51.03;99855.13;5098831;28;8833;-57
2023/06/17 02:57:08;;;;;;;;;8.00;7.50;;;;;13.10;51.04;99864.97;5098514;28;8805;-59
2023/06/17 02:59:37;;;;;;;;;7.00;6.75;;;;;13.08;51.21;99858.91;5098051;28;8833;-57
2023/06/17 03:02:04;;;;;;;;;6.75;6.75;;;;;13.06;51.30;99850.19;5099296;28;8848;-57
2023/06/17 03:04:34;;;;;;;;;11.00;9.25;;;;;13.02;51.11;99852.31;5098452;28;8837;-56
2023/06/17 03:07:02;;;;;;;;;6.75;6.75;;;;;13.00;51.45;99850.75;5098916;28;8845;-58
2023/06/17 03:09:30;;;;;;;;;6.50;4.50;;;;;12.98;51.45;99850.06;5098083;28;8821;-58
2023/06/17 03:11:58;;;;;;;;;9.00;7.50;;;;;12.94;51.41;99851.28;5098872;28;9611;-57
2023/06/17 03:14:26;;;;;;;;;9.75;9.00;;;;;12.91;51.13;99857.72;5098040;28;8845;-59
2023/06/17 03:16:53;;;;;;;;;5.00;4.00;;;;;12.87;51.16;99852.81;5098502;28;8968;-57
2023/06/17 03:19:22;;;;;;;;;9.00;9.00;;;;;12.85;51.39;99852.09;5098088;28;9585;-59
2023/06/17 03:21:50;;;;;;;;;6.00;6.00;;;;;12.81;51.89;99853.34;5097950;28;8837;-57
2023/06/17 03:24:17;;;;;;;;;12.00;10.00;;;;;12.75;51.96;99861.94;5098015;28;8864;-57
2023/06/17 03:26:46;;;;;;;;;9.50;9.00;;;;;12.70;51.74;99845.47;5097580;28;8806;-57
2023/06/17 03:29:13;;;;;;;;;5.75;3.75;;;;;12.67;52.07;99851.06;5098035;28;9515;-57
2023/06/17 03:31:42;;;;;;;;;7.00;7.00;;;;;12.66;51.70;99846.72;5097977;28;8833;-57
2023/06/17 03:34:09;;;;;;;;;13.25;10.50;;;;;12.67;51.59;99845.72;5098213;28;8836;-57
2023/06/17 03:36:39;;;;;;;;;3.00;3.00;;;;;12.68;52.29;99844.78;5097483;28;8856;-59
2023/06/17 03:39:07;;;;;;;;;9.25;8.50;;;;;12.69;52.25;99846.47;5097923;28;8926;-58
2023/06/17 03:41:35;;;;;;;;;9.75;9.00;;;;;12.69;51.66;99843.78;5098132;28;8833;-59
2023/06/17 03:44:03;;;;;;;;;12.25;9.25;;;;;12.72;51.82;99836.34;5098650;28;8859;-59
2023/06/17 03:46:30;;;;;;;;;12.00;10.50;;;;;12.75;51.98;99837.91;5096953;28;8849;-59
2023/06/17 03:48:58;;;;;;;;;9.00;9.00;;;;;12.78;51.44;99832.25;5097624;28;8833;-57
2023/06/17 03:51:26;;;;;;;;;12.25;11.00;;;;;12.81;51.57;99829.31;5097975;28;8837;-59
2023/06/17 03:53:54;;;;;;;;;12.00;9.50;;;;;12.86;51.74;99840.44;5097165;28;8829;-58
2023/06/17 03:56:21;;;;;;;;;9.50;9.50;;;;;12.91;51.82;99833.69;5097621;28;8853;-59
2023/06/17 03:58:49;;;;;;;;;8.75;7.50;;;;;12.98;51.34;99836.69;5097484;28;8971;-59
2023/06/17 04:01:17;;;;;;;;;10.25;8.25;;;;;13.06;51.20;99840.34;5097337;28;8833;-59
2023/06/17 04:03:45;;;;;;;;;11.00;9.75;;;;;13.14;50.77;99831.63;5097268;28;8833;-59
2023/06/17 04:06:13;;;;;;;;;8.00;8.00;;;;;13.20;50.88;99834.56;5097150;28;8858;-59
2023/06/17 04:08:44;;;;;;;;;12.25;11.00;;;;;13.32;51.13;99840.63;5097245;28;8821;-58
2023/06/17 04:11:12;;;;;;;;;9.25;7.50;;;;;13.45;51.06;99833.97;5097744;28;8967;-59
2023/06/17 04:13:40;;;;;;;;;7.50;7.00;;;;;13.58;50.31;99831.03;5097334;28;8833;-59
2023/06/17 04:16:08;;;;;;;;;3.75;3.75;;;;;13.75;50.71;99838.31;5097356;28;8837;-59
2023/06/17 04:18:35;;;;;;;;;11.75;9.00;;;;;13.88;50.21;99839.66;5097275;28;8857;-59
2023/06/17 04:21:05;;;;;;;;;10.50;9.75;;;;;13.97;50.53;99838.78;5097418;28;8853;-59
2023/06/17 04:23:33;;;;;;;;;12.50;12.00;;;;;14.00;50.84;99838.53;5096571;28;8862;-59
2023/06/17 04:26:01;;;;;;;;;12.00;12.00;;;;;14.00;50.66;99843.00;5097112;28;8813;-59
2023/06/17 04:28:33;;;;;;;;;10.00;9.50;;;;;13.99;50.57;99842.19;5096583;28;8922;-59
2023/06/17 04:31:01;;;;;;;;;9.00;9.00;;;;;14.03;50.51;99845.41;5096882;28;8829;-59
2023/06/17 04:33:30;;;;;;;;;9.00;8.00;;;;;14.06;51.08;99853.16;5096580;28;8971;-59
2023/06/17 04:35:58;;;;;;;;;10.00;9.25;;;;;14.08;50.80;99849.34;5096797;28;8967;-59
2023/06/17 04:38:26;;;;;;;;;9.25;9.00;;;;;14.09;50.64;99852.84;5096356;28;8857;-59
2023/06/17 04:40:54;;;;;;;;;12.00;11.00;;;;;14.09;50.46;99851.03;5096390;28;8841;-59
2023/06/17 04:43:22;;;;;;;;;11.00;10.25;;;;;14.13;50.82;99848.91;5097084;28;9859;-59
2023/06/17 04:45:51;;;;;;;;;9.50;9.00;;;;;14.17;50.48;99847.59;5097004;28;8849;-58
2023/06/17 04:48:19;;;;;;;;;10.00;10.00;;;;;14.24;50.33;99848.72;5097062;28;8841;-58
2023/06/17 04:50:47;;;;;;;;;9.00;9.00;;;;;14.29;50.79;99833.06;5096463;28;8855;-58
2023/06/17 04:53:15;;;;;;;;;12.25;10.00;;;;;14.35;50.16;99836.00;5096425;28;8852;-58
2023/06/17 04:55:43;;;;;;;;;14.00;11.75;;;;;14.45;50.37;99835.94;5095967;28;8837;-57
2023/06/17 04:58:11;;;;;;;;;12.50;10.00;;;;;14.53;50.08;99841.41;5096283;28;8864;-59
2023/06/17 05:00:39;;;;;;;;;12.50;11.00;;;;;14.65;49.92;99845.56;5096045;28;9502;-57
2023/06/17 05:03:07;;;;;;;;;12.75;10.00;;;;;14.82;50.31;99842.06;5095951;28;8837;-58
2023/06/17 05:05:34;;;;;;;;;11.25;11.00;;;;;15.00;49.41;99840.25;5095868;28;8894;-58
2023/06/17 05:08:02;;;;;;;;;10.00;10.00;;;;;15.17;49.49;99844.78;5095936;28;8837;-58
2023/06/17 05:10:30;;;;;;;;;10.00;9.00;;;;;15.29;49.57;99839.03;5096133;28;8863;-58
2023/06/17 05:12:58;;;;;;;;;11.50;11.50;;;;;15.43;49.36;99837.66;5095436;28;9529;-58
2023/06/17 05:15:25;;;;;;;;;10.50;10.50;;;;;15.57;49.28;99834.44;5095885;28;8848;-58
2023/06/17 05:17:53;;;;;;;;;15.50;14.50;;;;;15.70;49.44;99841.06;5095884;28;8926;-58
2023/06/17 05:20:21;;;;;;;;;15.00;14.50;;;;;15.80;48.74;99830.25;5095442;28;8884;-58
2023/06/17 05:22:49;;;;;;;;;16.75;15.25;;;;;15.85;48.96;99841.34;5096532;28;8825;-59
2023/06/17 05:25:17;;;;;;;;;13.25;11.50;;;;;15.85;48.99;99827.94;5095958;28;8837;-57
2023/06/17 05:27:44;;;;;;;;;14.50;11.50;;;;;15.86;49.43;99830.44;5096401;28;8875;-58
2023/06/17 05:30:12;;;;;;;;;14.50;14.50;;;;;15.91;48.92;99832.69;5095949;28;8833;-58
2023/06/17 05:32:40;;;;;;;;;15.50;13.50;;;;;15.97;49.31;99827.50;5094176;28;8825;-59
2023/06/17 05:35:08;;;;;;;;;11.00;9.75;;;;;16.06;48.96;99821.16;5094953;28;8849;-58
2023/06/17 05:37:35;;;;;;;;;14.50;13.00;;;;;16.17;49.57;99829.78;5095522;28;8848;-59
2023/06/17 05:40:03;;;;;;;;;13.00;10.00;;;;;16.24;49.26;99828.16;5095287;28;8864;-58
2023/06/17 05:42:30;;;;;;;;;15.00;12.25;;;;;16.35;48.47;99838.59;5094247;28;8855;-59
2023/06/17 05:44:58;;;;;;;;;12.50;11.00;;;;;16.50;48.42;99825.44;5095970;28;8856;-59
2023/06/17 05:47:26;;;;;;;;;4.50;3.50;;;;;16.66;48.75;99828.19;5075315;28;8850;-60
2023/06/17 05:49:54;;;;;;;;;13.00;11.75;;;;;16.83;48.59;99828.06;5074983;28;8856;-59
2023/06/17 05:52:21;;;;;;;;;12.75;12.75;;;;;17.07;47.92;99835.34;5075281;28;8834;-59
2023/06/17 05:54:49;;;;;;;;;14.00;12.25;;;;;17.24;47.46;99821.75;5075196;28;8855;-58
2023/06/17 05:57:17;;;;;;;;;12.00;10.00;;;;;17.43;47.34;99829.53;5075342;28;8840;-58
2023/06/17 05:59:45;;;;;;;;;14.00;14.00;;;;;17.64;47.19;99824.50;5094065;28;8843;-59
2023/06/17 06:02:12;;;;;;;;;16.00;13.50;;;;;17.88;46.76;99835.22;5095430;28;8918;-57
2023/06/17 06:04:40;;;;;;;;;8.75;5.50;;;;;18.12;46.75;99829.78;5095377;28;8844;-57
2023/06/17 06:07:08;;;;;;;;;18.75;16.50;;;;;18.37;46.25;99836.81;5094959;28;8865;-59
2023/06/17 06:09:36;;;;;;;;;10.80;10.40;;;;;18.53;46.28;99834.03;5096164;28;8996;-57
2023/06/17 06:12:05;;;;;;;;;13.80;12.80;;;;;18.64;45.60;99836.38;5099226;28;8859;-57
2023/06/17 06:14:32;;;;;;;;;10.20;9.80;;;;;18.74;45.75;99825.38;5098825;28;8833;-58
2023/06/17 06:17:00;;;;;;;;;14.20;13.00;;;;;18.86;45.49;99830.19;5098916;28;8841;-60
2023/06/17 06:19:28;;;;;;;;;13.60;12.00;;;;;18.96;45.82;99829.97;5098596;28;8857;-59
2023/06/17 06:21:55;;;;;;;;;14.20;14.20;;;;;19.03;45.53;99831.75;5099625;28;8903;-59
2023/06/17 06:24:23;;;;;;;;;15.00;15.00;;;;;19.12;45.62;99825.28;5099081;28;8912;-57
2023/06/17 06:26:51;;;;;;;;;15.80;15.80;;;;;19.26;45.55;99832.66;5099180;28;8833;-58
2023/06/17 06:29:20;;;;;;;;;15.40;12.40;;;;;19.39;44.82;99832.91;5099249;28;8856;-57
2023/06/17 06:31:47;;;;;;;;;6.20;6.20;;;;;19.52;44.86;99825.03;5099025;28;8837;-58
2023/06/17 06:34:15;;;;;;;;;12.00;12.00;;;;;19.65;45.01;99830.63;5098984;28;8829;-59
2023/06/17 06:36:43;;;;;;;;;13.00;11.00;;;;;19.79;44.31;99824.44;5098705;28;8848;-57
2023/06/17 06:39:11;;;;;;;;;12.20;11.80;;;;;19.97;44.66;99832.22;5098222;28;8853;-59
2023/06/17 06:41:41;;;;;;;;;15.60;15.60;;;;;20.13;44.23;99834.78;5097908;28;8926;-57
2023/06/17 06:44:09;;;;;;;;;12.80;12.80;;;;;20.27;43.66;99834.81;5097830;28;8910;-57
2023/06/17 06:46:37;;;;;;;;;11.20;8.00;;;;;20.40;43.84;99840.38;5097156;28;8821;-59
2023/06/17 06:49:05;;;;;;;;;9.60;9.20;;;;;20.46;43.66;99831.50;5098091;28;8856;-58
2023/06/17 06:51:32;;;;;;;;;10.00;9.60;;;;;20.51;44.02;99842.63;5098045;28;8845;-58
2023/06/17 06:54:00;;;;;;;;;12.20;12.20;;;;;20.57;43.86;99841.88;5097889;28;8829;-57
2023/06/17 06:56:28;;;;;;;;;13.60;12.60;;;;;20.63;43.45;99843.00;5097624;28;8832;-59
2023/06/17 06:58:56;;;;;;;;;11.20;10.40;;;;;20.69;43.89;99834.13;5098117;28;8829;-58
2023/06/17 07:01:26;;;;;;;;;10.80;10.80;;;;;20.77;43.93;99834.84;5098183;28;9504;-59
2023/06/17 07:03:54;;;;;;;;;11.20;10.40;;;;;20.84;43.53;99839.31;5097916;28;8863;-60
2023/06/17 07:06:22;;;;;;;;;7.20;5.00;;;;;20.93;43.00;99840.06;5097853;28;8817;-60
2023/06/17 07:08:50;;;;;;;;;6.60;5.40;;;;;21.03;43.21;99832.50;5098041;28;8848;-60
2023/06/17 07:11:18;;;;;;;;;10.40;7.80;;;;;21.16;43.25;99846.16;5097497;28;8826;-57
2023/06/17 07:13:45;;;;;;;;;11.00;11.00;;;;;21.27;42.62;99841.06;5098181;28;9547;-57
2023/06/17 07:16:14;;;;;;;;;11.60;11.00;;;;;21.34;42.89;99828.44;5097609;28;8829;-60
2023/06/17 07:18:42;;;;;;;;;13.60;12.20;;;;;21.43;42.63;99837.28;5097116;28;8840;-60
2023/06/17 07:21:10;;;;;;;;;10.00;10.00;;;;;21.53;42.23;99840.50;5096487;28;9507;-60
2023/06/17 07:23:38;;;;;;;;;10.00;7.80;;;;;21.60;42.79;99830.56;5097576;28;9014;-60
2023/06/17 07:26:06;;;;;;;;;10.20;10.20;;;;;21.70;42.13;99834.66;5097501;28;9479;-60
2023/06/17 07:28:33;;;;;;;;;9.20;8.00;;;;;21.78;41.99;99836.41;5097681;28;8852;-58
2023/06/17 07:31:01;;;;;;;;;12.40;11.00;;;;;21.84;41.95;99825.59;5096979;28;8867;-58
2023/06/17 07:33:30;;;;;;;;;11.00;10.40;;;;;21.95;42.18;99829.66;5096823;28;9006;-60
2023/06/17 07:35:59;;;;;;;;;11.60;10.60;;;;;22.02;42.12;99825.13;5096482;28;8853;-61
2023/06/17 07:38:27;;;;;;;;;13.00;10.60;;;;;22.08;41.88;99822.44;5097076;28;8829;-61
2023/06/17 07:40:55;;;;;;;;;11.20;11.20;;;;;22.12;41.58;99826.44;5096111;28;8863;-61
2023/06/17 07:43:22;;;;;;;;;12.60;12.60;;;;;22.21;41.44;99819.81;5097603;28;8863;-60
2023/06/17 07:45:50;;;;;;;;;11.40;11.20;;;;;22.30;41.46;99823.22;5096613;28;8975;-61
2023/06/17 07:48:18;;;;;;;;;11.20;10.20;;;;;22.40;41.52;99823.69;5096118;28;8925;-60
2023/06/17 07:50:46;;;;;;;;;12.80;12.40;;;;;22.46;41.18;99829.19;5095382;28;8868;-60
2023/06/17 07:53:15;;;;;;;;;10.60;10.60;;;;;22.53;41.20;99834.66;5095328;28;8950;-60
2023/06/17 07:55:43;;;;;;;;;9.00;8.00;;;;;22.59;40.86;99831.13;5095386;28;9599;-59
2023/06/17 07:58:11;;;;;;;;;9.00;8.40;;;;;22.70;41.06;99830.56;5096138;28;8856;-59
2023/06/17 08:00:39;;;;;;;;;13.20;12.60;;;;;22.77;40.70;99832.25;5094939;28;8845;-58
2023/06/17 08:03:07;;;;;;;;;11.00;11.00;;;;;22.82;40.60;99834.34;5095573;28;8849;-59
2023/06/17 08:05:37;;;;;;;;;10.80;10.80;;;;;22.84;41.16;99829.59;5095353;28;8867;-59
2023/06/17 08:08:04;;;;;;;;;11.00;11.00;;;;;22.88;40.94;99828.13;5095592;28;8849;-59
2023/06/17 08:10:32;;;;;;;;;10.40;9.60;;;;;22.93;40.48;99828.34;5095441;28;8849;-59
2023/06/17 08:13:00;;;;;;;;;12.40;12.40;;;;;22.99;41.12;99824.84;5095733;28;8923;-59
2023/06/17 08:15:29;;;;;;;;;15.80;14.60;;;;;23.07;40.60;99827.38;5095356;28;8875;-59
2023/06/17 08:17:57;;;;;;;;;5.20;4.00;;;;;23.17;40.39;99827.84;5095530;28;8852;-59
2023/06/17 08:20:25;;;;;;;;;11.80;10.00;;;;;23.27;39.92;99823.69;5094579;28;8879;-59
2023/06/17 08:22:52;;;;;;;;;15.20;13.00;;;;;23.38;40.51;99831.22;5095719;28;8863;-58
2023/06/17 08:25:20;;;;;;;;;9.00;9.00;;;;;23.51;39.96;99817.66;5094991;28;8934;-57
2023/06/17 08:27:50;;;;;;;;;9.40;9.40;;;;;23.71;39.99;99813.06;5095700;28;9521;-59
2023/06/17 08:30:18;;;;;;;;;10.60;10.40;;;;;23.90;39.86;99808.72;5095237;28;8837;-59
2023/06/17 08:32:47;;;;;;;;;10.60;10.60;;;;;23.99;39.11;99816.44;5094760;28;8841;-60
2023/06/17 08:35:16;;;;;;;;;10.60;9.40;;;;;24.08;39.12;99812.47;5094970;28;8926;-59
2023/06/17 08:37:44;;;;;;;;;9.60;9.40;;;;;24.10;39.60;99814.94;5094458;28;8833;-59
2023/06/17 08:40:13;;;;;;;;;12.00;9.20;;;;;24.19;39.02;99813.69;5095140;28;8861;-59
2023/06/17 08:42:41;;;;;;;;;8.60;8.60;;;;;24.30;38.88;99807.59;5095327;28;8960;-58
2023/06/17 08:45:10;;;;;;;;;7.40;7.40;;;;;24.41;38.97;99807.78;5095807;28;8952;-58
2023/06/17 08:47:37;;;;;;;;;10.40;10.40;;;;;24.58;38.41;99808.19;5094604;28;8833;-56
2023/06/17 08:50:05;;;;;;;;;9.20;8.80;;;;;24.78;37.83;99809.78;5094532;28;8942;-58
2023/06/17 08:52:33;;;;;;;;;11.20;9.00;;;;;24.87;38.11;99810.38;5094713;28;8834;-58
2023/06/17 08:55:02;;;;;;;;;10.60;9.40;;;;;24.89;38.49;99802.81;5094321;28;8853;-57
2023/06/17 08:57:31;;;;;;;;;8.60;6.80;;;;;24.98;37.85;99805.06;5093213;28;8830;-59
2023/06/17 08:59:59;;;;;;;;;9.00;8.20;;;;;25.15;37.73;99808.09;5094043;28;9487;-57
2023/06/17 09:02:27;;;;;;;;;9.20;8.20;;;;;25.33;37.51;99802.81;5093978;28;8853;-59
2023/06/17 09:04:57;;;;;;;;;7.40;7.20;;;;;25.42;37.40;99802.34;5093857;28;8938;-58
2023/06/17 09:07:25;;;;;;;;;7.00;6.00;;;;;25.52;36.94;99802.66;5093740;28;8849;-57
2023/06/17 09:09:53;;;;;;;;;9.20;7.80;;;;;25.60;37.27;99800.47;5093765;28;8849;-58
2023/06/17 09:12:21;;;;;;;;;7.80;7.80;;;;;25.69;36.59;99801.06;5093430;28;8867;-57
2023/06/17 09:14:48;;;;;;;;;8.20;8.20;;;;;25.77;36.57;99801.63;5094224;28;8875;-57
2023/06/17 09:17:19;;;;;;;;;8.00;6.20;;;;;25.84;37.00;99796.94;5093375;28;8844;-58
2023/06/17 09:19:49;;;;;;;;;7.00;7.00;;;;;25.98;36.56;99793.06;5094403;28;8942;-57
2023/06/17 09:22:17;;;;;;;;;10.80;10.80;;;;;26.12;36.42;99791.88;5094752;28;9706;-61
2023/06/17 09:24:46;;;;;;;;;9.80;8.80;;;;;26.28;35.80;99796.75;5094489;28;8833;-58
2023/06/17 09:27:14;;;;;;;;;11.00;10.00;;;;;26.38;35.84;99794.34;5094243;28;8947;-60
2023/06/17 09:29:44;;;;;;;;;11.00;10.00;;;;;26.47;35.99;99801.16;5093622;28;8843;-60
2023/06/17 09:32:12;;;;;;;;;11.00;10.80;;;;;26.60;35.62;99787.38;5092810;28;8975;-60
2023/06/17 09:34:39;;;;;;;;;11.40;11.20;;;;;26.70;35.80;99789.59;5094191;28;8984;-59
2023/06/17 09:37:07;;;;;;;;;10.40;9.20;;;;;26.82;35.25;99790.47;5094933;28;9487;-59
2023/06/17 09:39:35;;;;;;;;;8.60;8.00;;;;;26.98;35.27;99796.16;5094941;28;8833;-58
2023/06/17 09:42:05;;;;;;;;;9.40;7.20;;;;;27.06;35.45;99790.34;5093957;28;8855;-59
2023/06/17 09:44:47;;;;;;;;;7.80;7.20;;;;;27.24;35.07;99778.56;5092755;28;8969;-58
2023/06/17 09:47:15;;;;;;;;;8.00;8.00;;;;;27.32;35.11;99776.31;5094709;28;8851;-59
2023/06/17 09:49:43;;;;;;;;;9.00;8.20;;;;;27.33;34.68;99788.94;5093856;28;8875;-58
2023/06/17 09:52:12;;;;;;;;;7.20;7.20;;;;;27.36;35.04;99783.00;5093804;28;8967;-58
2023/06/17 09:54:41;;;;;;;;;7.40;6.80;;;;;27.47;34.13;99776.72;5094241;28;8926;-59
2023/06/17 09:57:09;;;;;;;;;9.60;9.60;;;;;27.60;33.86;99782.00;5091842;28;8833;-58
2023/06/17 09:59:37;;;;;;;;;8.20;8.20;;;;;27.67;34.07;99781.88;5092727;28;8829;-58
2023/06/17 10:02:05;;;;;;;;;8.60;8.00;;;;;27.83;33.71;99784.78;5093470;28;8844;-58
2023/06/17 10:04:34;;;;;;;;;8.00;8.00;;;;;28.12;33.89;99786.59;5093566;28;8877;-59
2023/06/17 10:07:06;;;;;;;;;9.00;8.00;;;;;28.31;33.09;99781.81;5093994;28;8918;-58
2023/06/17 10:09:34;;;;;;;;;6.80;4.60;;;;;28.47;32.94;99787.44;5093966;28;8849;-58
2023/06/17 10:12:02;;;;;;;;;9.00;9.00;;;;;28.68;32.65;99786.78;5094479;28;9507;-58
2023/06/17 10:14:30;;;;;;;;;9.20;8.20;;;;;28.98;32.04;99779.19;5093802;28;8923;-58
2023/06/17 10:16:59;;;;;;;;;8.00;8.00;;;;;29.35;32.05;99772.22;5092898;28;8857;-56
2023/06/17 10:19:27;;;;;;;;;10.20;9.60;;;;;29.81;31.39;99777.44;5092166;28;8869;-59
2023/06/17 10:21:54;;;;;;;;;10.20;10.00;;;;;30.23;31.12;99775.13;5093255;28;8853;-59
2023/06/17 10:24:22;;;;;;;;;9.80;8.60;;;;;30.56;30.21;99784.13;5092568;28;8883;-59
2023/06/17 10:26:50;;;;;;;;;8.60;8.00;;;;;30.79;29.91;99776.50;5092874;28;9539;-57
2023/06/17 10:29:21;;;;;;;;;9.00;9.00;;;;;31.01;30.63;99774.56;5091628;28;8837;-58
2023/06/17 10:31:50;;;;;;;;;10.40;10.00;;;;;31.31;29.82;99776.81;5093064;28;8849;-57
2023/06/17 10:34:19;;;;;;;;;6.60;6.00;;;;;31.55;29.45;99778.16;5093323;28;8853;-57
2023/06/17 10:36:47;;;;;;;;;5.20;5.00;;;;;31.84;29.25;99772.13;5093475;28;8914;-56
2023/06/17 10:39:15;;;;;;;;;11.00;10.60;;;;;32.18;29.49;99775.41;5093227;28;8839;-57
2023/06/17 10:41:44;;;;;;;;;10.60;10.00;;;;;32.47;28.85;99772.03;5093363;28;8880;-57
2023/06/17 10:44:12;;;;;;;;;7.60;7.40;;;;;32.81;28.10;99766.97;5094733;28;8829;-60
2023/06/17 10:46:40;;;;;;;;;7.00;7.00;;;;;33.14;28.28;99772.06;5093424;28;8856;-59
2023/06/17 10:49:08;;;;;;;;;7.80;7.40;;;;;33.32;27.92;99772.41;5093596;28;8848;-58
2023/06/17 10:51:36;;;;;;;;;7.20;7.00;;;;;33.50;27.35;99765.50;5094015;28;8829;-59
2023/06/17 10:54:24;;;;;;;;;8.00;7.20;;;;;33.76;27.31;99768.03;5093460;28;8845;-59
2023/06/17 10:56:52;;;;;;;;;5.40;4.60;;;;;33.95;27.04;99763.63;5096031;28;8837;-59
2023/06/17 10:59:20;;;;;;;;;7.80;7.80;;;;;34.10;27.43;99765.53;5096305;28;8841;-60
2023/06/17 11:01:48;;;;;;;;;8.00;7.20;;;;;34.26;27.29;99762.50;5097338;28;8845;-58
2023/06/17 11:04:16;;;;;;;;;6.00;6.00;;;;;34.28;26.60;99763.03;5096279;28;8864;-59
2023/06/17 11:06:45;;;;;;;;;8.40;8.20;;;;;34.54;26.63;99761.03;5095951;28;8860;-59
2023/06/17 11:09:13;;;;;;;;;8.00;7.00;;;;;34.71;27.07;99761.53;5096245;28;8864;-60
2023/06/17 11:11:41;;;;;;;;;7.00;7.00;;;;;34.80;27.00;99748.81;5096606;28;9597;-59
2023/06/17 11:14:09;;;;;;;;;7.00;7.00;;;;;35.00;26.29;99760.59;5096707;28;8833;-57
2023/06/17 11:16:38;;;;;;;;;6.60;5.40;;;;;35.03;26.13;99751.72;5096393;28;8972;-58
2023/06/17 11:19:06;;;;;;;;;7.00;6.60;;;;;35.08;25.94;99750.84;5095296;28;8841;-59
2023/06/17 11:21:35;;;;;;;;;7.40;7.00;;;;;35.21;26.26;99753.03;5095221;28;8926;-58
2023/06/17 11:24:03;;;;;;;;;8.00;8.00;;;;;35.28;26.04;99746.06;5094269;28;8857;-57
2023/06/17 11:26:31;;;;;;;;;7.60;7.60;;;;;35.43;25.87;99753.44;5094578;28;8841;-59
2023/06/17 11:29:00;;;;;;;;;6.00;6.00;;;;;35.52;25.43;99752.53;5094817;28;8857;-57
2023/06/17 11:31:28;;;;;;;;;8.80;7.80;;;;;35.58;25.43;99736.69;5094708;28;8841;-58
2023/06/17 11:33:56;;;;;;;;;7.00;7.00;;;;;35.64;25.61;99738.31;5093986;28;8825;-59
2023/06/17 11:36:24;;;;;;;;;8.60;7.80;;;;;35.52;25.78;99738.69;5095488;28;8856;-57
2023/06/17 11:38:52;;;;;;;;;6.40;6.40;;;;;35.36;25.67;99730.75;5095002;28;8892;-59